Time;durP1;ratioP1;P1;durP2;ratioP2;P2;SDS_P1;SDS_P2;PMS_P1;PMS_P2;Temp;Humidity;BMP_temperature;BMP_pressure;BME280_temperature;BME280_humidity;BME280_pressure;Samples;Min_cycle;Max_cycle;Signal;HPM_P1;HPM_P2
2022/09/04 00:01:13;;;;;;;2.75;2.33;;;;;;;15.28;100.00;100312.72;5078217;28;20200;-71
2022/09/04 00:03:46;;;;;;;3.70;2.15;;;;;;;15.12;100.00;100312.88;5080364;28;20264;-72
2022/09/04 00:06:18;;;;;;;5.63;3.70;;;;;;;15.12;100.00;100316.44;5083601;28;20274;-72
2022/09/04 00:08:59;;;;;;;7.10;3.72;;;;;;;15.14;100.00;100317.22;5067151;28;20206;-73
2022/09/04 00:11:44;;;;;;;3.90;2.38;;;;;;;15.08;100.00;100320.34;5065737;28;20267;-70
2022/09/04 00:14:16;;;;;;;2.70;2.15;;;;;;;15.14;100.00;100325.34;5076716;28;20569;-72
2022/09/04 00:16:49;;;;;;;2.97;2.03;;;;;;;15.08;100.00;100331.19;5081646;28;20210;-72
2022/09/04 00:19:25;;;;;;;4.72;1.92;;;;;;;15.05;100.00;100325.97;5082732;28;20580;-72
2022/09/04 00:21:56;;;;;;;3.00;2.13;;;;;;;15.11;100.00;100330.13;5078587;28;20246;-72
2022/09/04 00:24:25;;;;;;;3.38;1.73;;;;;;;15.12;100.00;100330.00;5083237;28;20205;-73
2022/09/04 00:26:59;;;;;;;3.00;2.05;;;;;;;15.12;100.00;100326.44;5077963;28;20862;-73
2022/09/04 00:29:39;;;;;;;2.97;2.00;;;;;;;15.14;100.00;100332.63;5078513;28;20207;-71
2022/09/04 00:32:17;;;;;;;3.65;2.13;;;;;;;15.02;100.00;100337.00;5072592;28;20285;-72
2022/09/04 00:35:00;;;;;;;3.50;2.13;;;;;;;15.07;100.00;100342.13;5079237;28;20705;-73
2022/09/04 00:37:32;;;;;;;2.88;2.28;;;;;;;15.00;100.00;100349.78;5074339;28;20196;-73
2022/09/04 00:40:04;;;;;;;3.90;2.40;;;;;;;15.15;100.00;100356.94;5082756;28;20196;-72
2022/09/04 00:42:48;;;;;;;2.33;1.90;;;;;;;15.25;100.00;100359.06;5074111;28;20201;-73
2022/09/04 00:45:28;;;;;;;2.40;2.03;;;;;;;15.31;100.00;100355.91;5069106;28;20226;-73
2022/09/04 00:48:23;;;;;;;2.67;1.90;;;;;;;15.40;100.00;100358.06;5072761;28;20200;-71
2022/09/04 00:51:16;;;;;;;3.25;2.10;;;;;;;15.46;100.00;100352.19;5072733;28;20663;-72
2022/09/04 00:54:12;;;;;;;2.33;1.80;;;;;;;15.56;100.00;100342.47;5075308;28;20196;-72
2022/09/04 00:57:29;;;;;;;2.63;1.50;;;;;;;15.67;100.00;100359.88;5078250;28;20215;-74
2022/09/04 01:00:13;;;;;;;3.17;1.63;;;;;;;15.76;100.00;100357.47;5067418;28;20215;-73
2022/09/04 01:02:56;;;;;;;2.92;1.70;;;;;;;15.81;100.00;100355.31;5060265;28;20697;-70
2022/09/04 01:05:39;;;;;;;1.80;1.40;;;;;;;15.81;100.00;100357.16;5086529;28;20220;-73
2022/09/04 01:08:15;;;;;;;2.63;1.83;;;;;;;15.80;100.00;100358.97;5084936;28;20206;-71
2022/09/04 01:10:50;;;;;;;2.30;1.52;;;;;;;15.86;100.00;100359.56;5070151;28;20664;-73
2022/09/04 01:13:30;;;;;;;4.57;1.80;;;;;;;15.82;100.00;100362.47;5078495;28;20627;-71
2022/09/04 01:16:04;;;;;;;4.63;1.73;;;;;;;15.82;100.00;100361.59;5080127;28;20220;-72
2022/09/04 01:18:39;;;;;;;2.70;1.70;;;;;;;15.83;100.00;100366.06;5087377;28;20203;-73
2022/09/04 01:21:29;;;;;;;5.22;2.25;;;;;;;15.77;100.00;100370.06;5092908;28;20188;-72
2022/09/04 01:24:31;;;;;;;2.85;2.42;;;;;;;15.76;100.00;100367.44;5079918;28;20214;-71
2022/09/04 01:27:06;;;;;;;2.67;2.13;;;;;;;15.77;100.00;100369.19;5079568;28;20298;-73
2022/09/04 01:29:43;;;;;;;2.55;1.90;;;;;;;15.89;100.00;100372.91;5093603;28;20190;-73
2022/09/04 01:32:22;;;;;;;4.38;2.35;;;;;;;15.79;100.00;100367.25;5086798;28;20658;-71
2022/09/04 01:34:59;;;;;;;2.00;1.70;;;;;;;15.87;100.00;100370.28;5088788;28;20312;-71
2022/09/04 01:37:40;;;;;;;2.30;1.88;;;;;;;15.73;100.00;100367.66;5065182;28;20199;-72
2022/09/04 01:40:28;;;;;;;2.33;1.90;;;;;;;15.59;100.00;100372.13;5070851;28;20293;-72
2022/09/04 01:43:02;;;;;;;2.72;2.00;;;;;;;15.66;100.00;100379.88;5075061;28;20681;-72
2022/09/04 01:45:42;;;;;;;2.20;2.00;;;;;;;15.75;100.00;100382.00;5072500;28;20242;-72
2022/09/04 01:48:15;;;;;;;3.08;2.22;;;;;;;15.82;100.00;100383.31;5074722;28;20192;-71
2022/09/04 01:50:47;;;;;;;3.33;2.03;;;;;;;15.90;100.00;100378.25;5075671;28;20299;-73
2022/09/04 01:53:21;;;;;;;2.75;2.45;;;;;;;15.86;100.00;100381.28;5085116;28;20195;-72
2022/09/04 01:55:57;;;;;;;2.50;1.92;;;;;;;15.82;100.00;100386.91;5087656;28;20219;-73
2022/09/04 01:58:36;;;;;;;2.30;1.80;;;;;;;15.97;100.00;100382.28;5059148;28;20204;-74
2022/09/04 02:01:11;;;;;;;2.67;2.35;;;;;;;16.03;100.00;100387.31;5065494;28;20564;-71
2022/09/04 02:03:49;;;;;;;3.53;2.53;;;;;;;16.02;100.00;100382.84;5081760;28;20657;-70
2022/09/04 02:06:26;;;;;;;3.97;2.40;;;;;;;16.10;100.00;100381.44;5078309;28;20756;-73
2022/09/04 02:09:10;;;;;;;3.80;2.45;;;;;;;15.95;100.00;100384.22;5075525;28;20200;-73
2022/09/04 02:11:40;;;;;;;2.72;1.98;;;;;;;16.03;100.00;100390.03;5087749;28;20243;-72
2022/09/04 02:14:27;;;;;;;2.90;1.80;;;;;;;15.97;100.00;100390.44;5080023;28;20204;-71
2022/09/04 02:17:06;;;;;;;4.38;3.22;;;;;;;15.94;100.00;100393.38;5090078;28;20190;-72
2022/09/04 02:19:41;;;;;;;3.10;2.70;;;;;;;16.00;100.00;100397.50;5088866;28;20201;-73
2022/09/04 02:22:18;;;;;;;4.60;2.97;;;;;;;16.03;100.00;100395.44;5083209;28;20195;-72
2022/09/04 02:24:53;;;;;;;4.03;3.63;;;;;;;15.95;100.00;100400.53;5087590;28;20636;-70
2022/09/04 02:27:27;;;;;;;4.00;3.08;;;;;;;16.08;100.00;100407.81;5083913;28;20210;-72
2022/09/04 02:30:01;;;;;;;3.45;2.65;;;;;;;15.89;100.00;100400.94;5077107;28;20199;-72
2022/09/04 02:32:36;;;;;;;3.63;2.90;;;;;;;16.08;100.00;100394.25;5085014;28;20630;-72
2022/09/04 02:35:09;;;;;;;3.47;2.83;;;;;;;16.01;100.00;100394.69;5088224;28;20268;-71
2022/09/04 02:37:45;;;;;;;5.15;2.60;;;;;;;16.17;100.00;100402.66;5081623;28;20245;-72
2022/09/04 02:40:18;;;;;;;2.92;2.45;;;;;;;16.25;100.00;100391.25;5082878;28;20200;-72
2022/09/04 02:42:58;;;;;;;3.15;2.75;;;;;;;16.18;100.00;100398.09;5077025;28;20551;-71
2022/09/04 02:45:34;;;;;;;6.13;2.72;;;;;;;16.27;100.00;100400.16;5084759;22;20231;-72
2022/09/04 02:48:08;;;;;;;2.83;2.25;;;;;;;16.38;100.00;100397.56;5075985;28;20192;-73
2022/09/04 02:50:52;;;;;;;3.55;2.22;;;;;;;16.43;100.00;100394.53;5075111;28;20281;-70
2022/09/04 02:53:29;;;;;;;3.00;2.45;;;;;;;16.47;100.00;100391.50;5084308;28;20200;-70
2022/09/04 02:56:10;;;;;;;2.70;2.15;;;;;;;16.54;100.00;100393.78;5070793;28;20287;-69
2022/09/04 02:58:48;;;;;;;3.03;2.10;;;;;;;16.57;100.00;100393.56;5058383;28;20224;-72
2022/09/04 03:01:24;;;;;;;3.42;2.50;;;;;;;16.49;100.00;100401.41;5046710;28;20493;-71
2022/09/04 03:04:00;;;;;;;3.15;1.83;;;;;;;16.48;100.00;100403.22;5054819;28;20752;-71
2022/09/04 03:06:42;;;;;;;2.60;2.28;;;;;;;16.54;100.00;100407.38;5055333;28;20230;-71
2022/09/04 03:09:15;;;;;;;2.65;1.98;;;;;;;16.35;100.00;100405.06;5051447;28;20201;-71
2022/09/04 03:11:47;;;;;;;3.60;2.20;;;;;;;16.41;100.00;100404.63;5053811;28;20192;-71
2022/09/04 03:14:19;;;;;;;2.45;1.90;;;;;;;16.38;100.00;100407.59;5054864;28;20208;-72
2022/09/04 03:16:55;;;;;;;3.30;2.33;;;;;;;16.52;100.00;100401.19;5055666;28;20213;-72
2022/09/04 03:19:27;;;;;;;3.75;2.35;;;;;;;16.58;100.00;100407.06;5054655;28;20218;-73
2022/09/04 03:22:00;;;;;;;2.70;2.38;;;;;;;16.59;100.00;100410.63;5054166;28;20420;-72
2022/09/04 03:24:38;;;;;;;3.13;2.30;;;;;;;16.64;100.00;100409.34;5055265;28;20211;-71
2022/09/04 03:27:08;;;;;;;2.75;2.10;;;;;;;16.72;100.00;100416.94;5055478;28;20569;-71
2022/09/04 03:29:41;;;;;;;4.30;2.30;;;;;;;16.74;100.00;100416.84;5046362;28;20292;-70
2022/09/04 03:32:18;;;;;;;4.10;2.95;;;;;;;16.40;100.00;100411.06;5062813;28;20197;-72
2022/09/04 03:34:52;;;;;;;3.28;2.60;;;;;;;16.42;100.00;100414.56;5068584;28;20281;-71
2022/09/04 03:37:39;;;;;;;3.25;2.95;;;;;;;16.52;100.00;100418.34;5065272;28;20254;-71
2022/09/04 03:40:22;;;;;;;3.90;3.40;;;;;;;16.33;100.00;100416.06;5064513;28;20273;-70
2022/09/04 03:43:11;;;;;;;4.10;3.35;;;;;;;16.25;100.00;100423.84;5056861;28;20203;-70
2022/09/04 03:45:49;;;;;;;5.35;3.60;;;;;;;16.32;100.00;100429.75;5053806;28;20254;-73
2022/09/04 03:48:36;;;;;;;5.40;3.30;;;;;;;16.41;100.00;100421.81;5054186;28;20212;-71
2022/09/04 03:51:15;;;;;;;4.72;3.38;;;;;;;16.58;100.00;100422.50;5054673;28;20205;-71
2022/09/04 03:53:45;;;;;;;4.22;3.42;;;;;;;16.61;100.00;100425.84;5054759;28;20204;-72
2022/09/04 03:56:32;;;;;;;3.67;2.90;;;;;;;16.68;100.00;100419.00;5054289;28;20233;-72
2022/09/04 03:59:03;;;;;;;3.25;2.88;;;;;;;16.66;100.00;100423.72;5049530;28;20197;-72
2022/09/04 04:01:41;;;;;;;3.65;3.10;;;;;;;16.68;100.00;100429.03;5055772;28;20218;-71
2022/09/04 04:04:34;;;;;;;4.53;3.38;;;;;;;16.50;100.00;100422.16;5055174;28;20200;-72
2022/09/04 04:07:11;;;;;;;3.30;3.00;;;;;;;16.56;100.00;100427.19;5041039;28;20224;-72
2022/09/04 04:09:54;;;;;;;2.60;2.35;;;;;;;16.71;100.00;100434.25;5054888;28;20205;-71
2022/09/04 04:12:41;;;;;;;6.25;3.25;;;;;;;16.77;100.00;100438.38;5052135;28;20196;-72
2022/09/04 04:15:19;;;;;;;3.38;2.83;;;;;;;16.88;100.00;100436.66;5052985;28;20720;-71
2022/09/04 04:18:15;;;;;;;4.00;2.53;;;;;;;16.95;100.00;100437.09;5046113;28;20197;-73
2022/09/04 04:20:53;;;;;;;4.05;2.40;;;;;;;17.03;100.00;100437.44;5050951;28;20201;-71
2022/09/04 04:23:40;;;;;;;3.60;2.90;;;;;;;17.11;100.00;100441.44;5050412;28;20204;-71
2022/09/04 04:26:09;;;;;;;3.38;2.50;;;;;;;17.16;100.00;100439.25;5049991;28;20629;-71
2022/09/04 04:29:07;;;;;;;3.45;2.60;;;;;;;17.18;100.00;100445.47;5043119;28;20271;-71
2022/09/04 04:32:09;;;;;;;4.05;3.30;;;;;;;16.98;100.00;100441.44;5051647;28;20502;-70
2022/09/04 04:34:44;;;;;;;5.85;4.40;;;;;;;16.81;100.00;100446.25;5053105;28;20227;-71
2022/09/04 04:37:22;;;;;;;7.45;4.90;;;;;;;16.68;100.00;100456.22;5060059;28;20200;-69
2022/09/04 04:39:56;;;;;;;6.57;5.43;;;;;;;16.67;100.00;100463.50;5058068;28;20193;-71
2022/09/04 04:42:32;;;;;;;7.68;5.50;;;;;;;16.66;100.00;100467.22;5050509;28;20204;-72
2022/09/04 04:48:41;;;;;;;9.73;6.45;;;;;;;16.71;100.00;100480.50;5052439;28;20216;-72
2022/09/04 04:51:21;;;;;;;9.43;6.65;;;;;;;16.71;100.00;100483.22;5058050;28;20189;-72
2022/09/04 04:53:56;;;;;;;7.82;6.43;;;;;;;16.88;100.00;100488.34;5052904;28;20260;-70
2022/09/04 04:56:28;;;;;;;6.25;5.40;;;;;;;17.02;100.00;100492.81;5053467;28;20221;-73
2022/09/04 04:59:19;;;;;;;8.57;6.18;;;;;;;17.07;100.00;100490.66;5052978;28;20204;-71
2022/09/04 05:01:55;;;;;;;6.57;5.88;;;;;;;17.02;100.00;100494.66;5038752;28;20197;-72
2022/09/04 05:04:30;;;;;;;9.00;5.97;;;;;;;17.14;100.00;100493.81;5034205;28;20599;-72
2022/09/04 05:07:05;;;;;;;11.13;6.68;;;;;;;17.25;100.00;100502.09;5041184;28;20204;-71
2022/09/04 05:09:41;;;;;;;9.45;5.70;;;;;;;17.28;100.00;100490.09;5053215;28;20197;-70
2022/09/04 05:12:16;;;;;;;6.07;4.60;;;;;;;17.40;100.00;100501.94;5038822;28;20188;-72
2022/09/04 05:14:50;;;;;;;6.13;4.25;;;;;;;17.47;100.00;100508.69;5043955;28;20229;-71
2022/09/04 05:17:32;;;;;;;5.93;3.75;;;;;;;17.49;100.00;100506.72;5050686;28;20193;-71
2022/09/04 05:20:20;;;;;;;5.03;4.45;;;;;;;17.46;100.00;100512.41;5051917;28;20224;-72
2022/09/04 05:22:53;;;;;;;9.05;5.28;;;;;;;17.42;100.00;100519.91;5051046;28;20189;-71
2022/09/04 05:25:30;;;;;;;7.78;4.32;;;;;;;17.46;100.00;100526.03;5052554;28;20219;-71
2022/09/04 05:28:05;;;;;;;9.10;6.20;;;;;;;17.50;100.00;100525.69;5045558;28;20224;-72
2022/09/04 05:30:43;;;;;;;6.85;5.40;;;;;;;17.46;100.00;100528.75;5052287;28;20192;-72
2022/09/04 05:33:18;;;;;;;7.90;5.63;;;;;;;17.46;100.00;100534.19;5055754;28;20198;-71
2022/09/04 05:35:51;;;;;;;9.30;5.22;;;;;;;17.54;100.00;100541.78;5055375;28;20212;-71
2022/09/04 05:38:25;;;;;;;7.30;5.70;;;;;;;17.37;100.00;100543.00;5054490;28;20200;-72
2022/09/04 05:41:05;;;;;;;7.63;5.60;;;;;;;17.43;100.00;100557.03;5058391;28;20197;-71
2022/09/04 05:43:47;;;;;;;13.43;7.55;;;;;;;17.39;100.00;100562.81;5055385;28;20205;-71
2022/09/04 05:46:25;;;;;;;15.80;8.13;;;;;;;17.32;100.00;100562.41;5053085;28;20699;-74
2022/09/04 05:49:00;;;;;;;23.58;11.25;;;;;;;17.25;100.00;100567.41;5055623;28;20204;-73
2022/09/04 05:52:00;;;;;;;35.95;13.10;;;;;;;17.42;100.00;100582.53;5072091;28;20265;-70
2022/09/04 05:55:20;;;;;;;41.72;16.00;;;;;;;17.27;100.00;100583.59;5070515;28;20241;-71
2022/09/04 05:58:03;;;;;;;45.05;17.00;;;;;;;17.18;100.00;100590.56;4995341;28;20196;-71
2022/09/04 06:00:38;;;;;;;47.72;18.48;;;;;;;17.17;100.00;100597.00;4992537;28;20200;-72
2022/09/04 06:03:23;;;;;;;48.00;17.52;;;;;;;17.29;100.00;100596.13;4994045;28;20271;-69
2022/09/04 06:06:06;;;;;;;48.08;16.50;;;;;;;17.43;100.00;100600.59;4993065;28;20284;-70
2022/09/04 06:08:50;;;;;;;45.65;18.08;;;;;;;17.42;100.00;100604.31;4988573;28;20311;-72
2022/09/04 06:11:50;;;;;;;58.30;19.13;;;;;;;17.22;100.00;100608.44;4979820;28;20605;-72
2022/09/04 06:14:44;;;;;;;66.18;19.45;;;;;;;17.26;100.00;100617.25;4989490;28;20208;-72
2022/09/04 06:17:25;;;;;;;61.20;20.90;;;;;;;17.34;100.00;100627.59;4992803;28;20320;-73
2022/09/04 06:20:12;;;;;;;54.67;19.48;;;;;;;17.46;100.00;100632.19;4990069;28;20286;-72
2022/09/04 06:22:55;;;;;;;49.00;19.50;;;;;;;17.42;100.00;100630.66;4988770;28;20223;-73
2022/09/04 06:25:48;;;;;;;51.67;19.85;;;;;;;17.52;100.00;100642.63;4985389;28;20268;-71
2022/09/04 06:28:40;;;;;;;52.50;20.40;;;;;;;17.41;100.00;100639.78;5020230;28;20228;-72
2022/09/04 06:31:30;;;;;;;51.17;19.08;;;;;;;17.51;100.00;100652.66;5063314;28;20196;-72
2022/09/04 06:34:04;;;;;;;52.20;22.10;;;;;;;17.74;100.00;100654.75;5059290;28;20203;-72
2022/09/04 06:36:54;;;;;;;45.20;18.77;;;;;;;17.87;100.00;100655.66;5063447;28;20289;-72
2022/09/04 06:39:34;;;;;;;51.08;19.38;;;;;;;17.97;100.00;100651.25;5064564;28;20197;-74
2022/09/04 06:42:15;;;;;;;49.42;19.25;;;;;;;18.09;100.00;100661.28;5062029;28;20193;-72
2022/09/04 06:44:54;;;;;;;46.83;18.60;;;;;;;18.06;100.00;100653.31;5058613;28;20578;-72
2022/09/04 06:50:44;;;;;;;39.47;17.15;;;;;;;18.04;100.00;100660.72;5049666;28;20295;-73
2022/09/04 06:53:21;;;;;;;34.55;18.33;;;;;;;17.95;100.00;100666.84;5044282;28;20281;-73
2022/09/04 06:56:03;;;;;;;34.97;17.40;;;;;;;18.24;100.00;100655.69;5053362;28;20300;-71
2022/09/04 06:59:10;;;;;;;42.85;18.27;;;;;;;18.52;100.00;100657.25;5058999;28;20201;-72
2022/09/04 07:01:48;;;;;;;46.58;17.80;;;;;;;18.45;100.00;100670.47;4981102;28;20209;-71
2022/09/04 07:04:30;;;;;;;35.88;17.08;;;;;;;18.50;100.00;100672.84;4980182;28;20198;-74
2022/09/04 07:07:08;;;;;;;30.85;14.50;;;;;;;18.37;100.00;100670.16;4981860;28;20232;-73
2022/09/04 07:09:41;;;;;;;32.10;15.93;;;;;;;18.48;100.00;100672.97;4981316;28;20203;-73
2022/09/04 07:12:29;;;;;;;33.88;16.45;;;;;;;18.55;100.00;100676.09;4981388;28;20627;-74
2022/09/04 07:15:20;;;;;;;31.50;15.15;;;;;;;18.67;100.00;100675.19;4976292;28;20292;-73
2022/09/04 07:17:58;;;;;;;30.40;14.88;;;;;;;18.74;100.00;100667.41;4986217;28;20204;-71
2022/09/04 07:20:33;;;;;;;30.20;18.67;;;;;;;18.93;100.00;100656.88;4984071;28;20219;-72
2022/09/04 07:23:22;;;;;;;29.45;15.27;;;;;;;18.95;100.00;100665.81;4993162;28;20489;-72
2022/09/04 07:26:01;;;;;;;33.55;17.48;;;;;;;18.87;100.00;100673.72;4987166;28;20223;-71
2022/09/04 07:28:53;;;;;;;28.25;17.00;;;;;;;18.78;100.00;100682.59;4983144;28;20262;-72
2022/09/04 07:31:25;;;;;;;28.45;16.70;;;;;;;19.01;100.00;100671.78;4986828;28;20214;-71
2022/09/04 07:34:01;;;;;;;27.40;16.65;;;;;;;18.66;100.00;100688.94;4984952;28;20215;-71
2022/09/04 07:36:34;;;;;;;29.98;16.63;;;;;;;18.96;100.00;100688.53;4979895;28;20221;-72
2022/09/04 07:39:10;;;;;;;21.15;13.70;;;;;;;18.80;100.00;100688.81;5028159;28;20193;-73
2022/09/04 07:41:46;;;;;;;19.90;13.38;;;;;;;18.79;100.00;100689.81;5051280;28;20207;-73
2022/09/04 07:44:23;;;;;;;20.95;13.60;;;;;;;18.95;100.00;100675.88;5059029;28;20604;-72
2022/09/04 07:46:59;;;;;;;26.17;17.55;;;;;;;19.06;100.00;100678.66;5062080;28;20193;-72
2022/09/04 07:49:35;;;;;;;19.67;13.53;;;;;;;19.14;100.00;100672.59;5060562;28;20208;-73
2022/09/04 07:52:25;;;;;;;20.35;13.75;;;;;;;19.17;100.00;100673.25;5056993;28;20823;-71
2022/09/04 07:55:07;;;;;;;20.37;12.50;;;;;;;18.84;100.00;100673.97;5051937;28;20308;-71
2022/09/04 07:57:54;;;;;;;19.88;12.10;;;;;;;18.66;100.00;100694.41;5055822;28;20473;-72
2022/09/04 08:00:21;;;;;;;16.85;12.23;;;;;;;18.91;100.00;100691.59;5057922;28;20193;-72
2022/09/04 08:03:12;;;;;;;16.17;11.30;;;;;;;19.08;100.00;100703.09;5060967;28;20622;-73
2022/09/04 08:05:45;;;;;;;18.38;12.93;;;;;;;18.96;100.00;100699.44;5065117;28;20221;-70
2022/09/04 08:08:52;;;;;;;19.23;12.40;;;;;;;19.19;100.00;100705.88;5065634;28;20221;-71
2022/09/04 08:11:51;;;;;;;15.82;11.65;;;;;;;19.33;100.00;100705.69;5065193;28;20201;-70
2022/09/04 08:14:23;;;;;;;15.77;11.60;;;;;;;19.33;100.00;100705.69;5063218;28;20284;-73
2022/09/04 08:17:24;;;;;;;17.20;11.23;;;;;;;19.47;100.00;100701.00;5063734;28;20420;-75
2022/09/04 08:20:02;;;;;;;16.52;11.68;;;;;;;19.55;100.00;100713.06;5045876;28;20194;-72
2022/09/04 08:22:38;;;;;;;14.32;10.82;;;;;;;19.64;100.00;100711.47;5046535;28;20186;-72
2022/09/04 08:25:26;;;;;;;17.70;12.45;;;;;;;19.51;100.00;100710.69;5060871;28;20204;-74
2022/09/04 08:28:23;;;;;;;19.40;13.95;;;;;;;19.56;100.00;100713.97;5067531;28;20627;-71
2022/09/04 08:30:54;;;;;;;15.13;13.00;;;;;;;19.48;100.00;100714.53;5074368;28;20192;-72
2022/09/04 08:33:31;;;;;;;18.50;14.97;;;;;;;19.53;100.00;100716.91;5053317;28;20571;-72
2022/09/04 08:36:01;;;;;;;17.80;14.30;;;;;;;19.84;100.00;100715.41;5071745;28;20467;-72
2022/09/04 08:38:49;;;;;;;17.37;14.83;;;;;;;20.34;100.00;100715.06;5072931;28;20436;-72
2022/09/04 08:41:47;;;;;;;17.20;14.10;;;;;;;20.04;100.00;100716.56;5071287;28;20491;-73
2022/09/04 08:44:45;;;;;;;17.00;13.23;;;;;;;19.79;100.00;100718.50;5072402;28;20444;-73
2022/09/04 08:47:48;;;;;;;20.27;14.60;;;;;;;19.71;100.00;100722.84;5092704;22;20585;-70
2022/09/04 08:50:50;;;;;;;20.25;14.45;;;;;;;19.83;100.00;100718.25;5057318;28;20471;-70
2022/09/04 08:54:01;;;;;;;19.80;14.80;;;;;;;20.19;100.00;100729.00;5042448;28;20201;-70
2022/09/04 08:56:35;;;;;;;20.30;16.90;;;;;;;20.54;100.00;100730.72;5055801;28;20536;-71
2022/09/04 08:59:35;;;;;;;17.17;15.40;;;;;;;20.66;100.00;100728.00;5057488;28;20462;-71
2022/09/04 09:02:47;;;;;;;17.93;14.17;;;;;;;20.88;100.00;100727.97;5076168;28;20449;-71
2022/09/04 09:05:43;;;;;;;18.87;14.30;;;;;;;20.63;100.00;100731.88;5067486;28;20443;-70
2022/09/04 09:08:37;;;;;;;17.70;15.50;;;;;;;20.81;100.00;100732.22;5074846;28;20524;-71
2022/09/04 09:11:25;;;;;;;19.97;16.20;;;;;;;21.17;100.00;100727.38;5013162;28;20487;-70
2022/09/04 09:14:33;;;;;;;17.23;15.23;;;;;;;21.52;100.00;100724.38;5013278;28;20438;-71
2022/09/04 09:17:15;;;;;;;18.97;16.97;;;;;;;21.31;100.00;100727.06;5013404;28;20461;-70
2022/09/04 09:19:46;;;;;;;20.37;16.77;;;;;;;21.38;100.00;100725.53;5013889;28;20516;-69
2022/09/04 09:22:37;;;;;;;16.70;14.60;;;;;;;22.15;100.00;100731.72;5014399;28;20977;-72
2022/09/04 09:25:19;;;;;;;15.20;12.97;;;;;;;22.25;100.00;100736.28;5015781;28;20440;-70
2022/09/04 09:28:22;;;;;;;14.77;13.17;;;;;;;21.85;100.00;100739.78;5012731;28;20485;-69
2022/09/04 09:31:43;;;;;;;15.10;12.50;;;;;;;21.51;100.00;100735.50;5012922;28;20441;-69
2022/09/04 09:34:39;;;;;;;14.40;12.90;;;;;;;21.41;100.00;100732.66;4965952;28;20440;-70
2022/09/04 09:37:42;;;;;;;14.50;12.27;;;;;;;21.39;100.00;100723.66;4966949;28;20485;-71
2022/09/04 09:40:52;;;;;;;16.13;14.43;;;;;;;21.46;100.00;100719.44;4898699;29;20447;-70
2022/09/04 09:43:51;;;;;;;17.30;13.90;;;;;;;21.52;100.00;100718.03;4885880;29;20451;-69
2022/09/04 09:46:50;;;;;;;17.03;15.23;;;;;;;21.85;100.00;100709.63;4902245;29;20466;-70
2022/09/04 09:49:57;;;;;;;16.60;13.80;;;;;;;22.47;100.00;100715.13;4941728;29;20496;-69
2022/09/04 09:52:59;;;;;;;16.47;14.77;;;;;;;24.78;86.67;100710.59;4943260;29;20448;-70
2022/09/04 09:56:11;;;;;;;14.00;11.87;;;;;;;25.30;80.34;100712.72;4941516;29;20500;-70
2022/09/04 09:59:09;;;;;;;13.20;11.60;;;;;;;24.98;81.68;100720.47;4940331;29;20460;-70
2022/09/04 10:01:56;;;;;;;12.63;11.30;;;;;;;25.83;77.92;100722.84;4879047;29;20448;-70
2022/09/04 10:04:57;;;;;;;11.50;10.40;;;;;;;26.24;73.71;100720.38;4901438;29;20456;-69
2022/09/04 10:08:03;;;;;;;11.20;10.10;;;;;;;25.61;76.49;100720.59;4866180;29;20468;-70
2022/09/04 10:11:03;;;;;;;12.53;10.23;;;;;;;25.16;80.43;100720.47;4809623;29;20566;-70
2022/09/04 10:13:57;;;;;;;11.20;10.10;;;;;;;24.96;81.12;100718.88;4805281;29;21051;-69
2022/09/04 10:17:05;;;;;;;10.93;9.90;;;;;;;26.44;72.21;100720.13;4823154;29;20521;-71
2022/09/04 10:19:59;;;;;;;10.30;9.30;;;;;;;25.85;74.83;100714.41;4857449;29;20508;-70
2022/09/04 10:22:51;;;;;;;10.87;9.87;;;;;;;25.30;77.72;100718.22;4845368;29;20465;-71
2022/09/04 10:25:55;;;;;;;11.90;10.20;;;;;;;26.15;74.14;100704.78;4842806;29;20536;-70
2022/09/04 10:28:58;;;;;;;10.30;9.30;;;;;;;27.38;66.90;100705.25;4847564;29;20485;-72
2022/09/04 10:31:55;;;;;;;9.00;8.20;;;;;;;28.25;62.35;100709.16;4785620;30;20463;-70
2022/09/04 10:34:54;;;;;;;11.80;10.60;;;;;;;27.91;62.42;100706.66;4775369;30;20857;-71
2022/09/04 10:37:37;;;;;;;11.50;10.40;;;;;;;29.27;57.29;100706.44;4766801;30;20496;-70
2022/09/04 10:43:21;;;;;;;8.63;7.83;;;;;;;28.41;60.12;100707.38;4829875;29;20982;-70
2022/09/04 10:45:59;;;;;;;10.33;8.83;;;;;;;28.56;58.46;100702.88;4918617;29;20477;-74
2022/09/04 10:48:58;;;;;;;9.57;8.57;;;;;;;28.02;60.75;100711.81;4987791;28;20696;-70
2022/09/04 10:52:07;;;;;;;9.77;8.77;;;;;;;28.38;58.90;100705.84;4997008;28;20546;-70
2022/09/04 10:54:58;;;;;;;9.67;8.80;;;;;;;29.37;56.18;100700.66;4986187;28;20502;-69
2022/09/04 10:57:47;;;;;;;8.57;7.77;;;;;;;30.08;52.48;100704.03;4996895;28;20509;-70
2022/09/04 11:00:18;;;;;;;9.80;8.80;;;;;;;29.48;54.22;100699.34;4995133;28;20458;-72
2022/09/04 11:03:18;;;;;;;8.37;7.67;;;;;;;29.64;53.86;100701.13;4992228;28;20467;-71
2022/09/04 11:06:11;;;;;;;7.30;6.70;;;;;;;29.91;52.08;100705.25;4990648;28;20458;-74
2022/09/04 11:09:06;;;;;;;7.50;6.80;;;;;;;31.78;46.43;100701.00;5002487;28;20486;-70
2022/09/04 11:12:00;;;;;;;7.37;6.77;;;;;;;32.65;45.51;100696.03;5000702;28;20453;-73
2022/09/04 11:14:52;;;;;;;8.50;7.83;;;;;;;31.93;45.53;100702.81;5008476;28;20466;-71
2022/09/04 11:17:47;;;;;;;6.97;6.37;;;;;;;31.74;nan;100696.03;5016492;28;21044;-71
2022/09/04 11:20:32;;;;;;;6.53;5.87;;;;;;;31.81;45.10;100694.16;5016097;28;20473;-70
2022/09/04 11:23:25;;;;;;;6.80;6.10;;;;;;;31.73;45.27;100699.88;5022040;28;20449;-72
2022/09/04 11:26:21;;;;;;;6.77;6.27;;;;;;;32.32;44.51;100687.47;5014606;28;20515;-71
2022/09/04 11:29:03;;;;;;;6.50;5.90;;;;;;;31.54;46.13;100693.06;5013598;28;20492;-70
2022/09/04 11:31:53;;;;;;;7.07;6.37;;;;;;;31.66;46.03;100683.13;5005494;28;20473;-70
2022/09/04 11:35:08;;;;;;;6.37;5.83;;;;;;;32.08;44.30;100686.03;5015877;28;21151;-71
2022/09/04 11:38:07;;;;;;;5.43;4.93;;;;;;;32.50;44.02;100684.16;5014741;28;20429;-70
2022/09/04 11:41:14;;;;;;;4.80;4.40;;;;;;;35.57;37.81;100685.59;5004462;28;20458;-72
2022/09/04 11:44:14;;;;;;;5.00;4.47;;;;;;;32.61;41.27;100678.00;5007613;28;20915;-71
2022/09/04 11:47:14;;;;;;;4.30;4.00;;;;;;;32.44;41.70;100671.03;4985079;28;20482;-70
2022/09/04 11:50:16;;;;;;;4.30;3.40;;;;;;;33.38;39.69;100668.38;4976744;28;20493;-71
2022/09/04 11:53:00;;;;;;;3.77;3.47;;;;;;;35.54;36.24;100680.41;4985066;28;20466;-75
2022/09/04 11:56:05;;;;;;;3.50;3.20;;;;;;;34.57;37.59;100679.63;4996320;28;20454;-73
2022/09/04 11:59:02;;;;;;;3.77;3.37;;;;;;;34.02;37.72;100680.84;4900244;29;20518;-70
2022/09/04 12:01:51;;;;;;;3.60;3.30;;;;;;;33.71;39.07;100672.28;4897931;29;20462;-70
2022/09/04 12:04:46;;;;;;;3.10;2.80;;;;;;;32.82;40.58;100671.44;4902928;29;20463;-72
2022/09/04 12:07:30;;;;;;;3.80;3.37;;;;;;;33.36;39.35;100659.34;4902076;29;20556;-70
2022/09/04 12:10:28;;;;;;;2.57;1.97;;;;;;;33.62;37.82;100658.50;4898593;29;21109;-70
2022/09/04 12:13:14;;;;;;;3.50;2.47;;;;;;;34.36;36.58;100669.63;4892714;29;20447;-70
2022/09/04 12:16:11;;;;;;;2.00;1.80;;;;;;;34.83;36.35;100665.56;4899117;29;20550;-77
2022/09/04 12:19:23;;;;;;;2.40;2.20;;;;;;;37.27;33.23;100672.06;4895514;29;20487;-69
2022/09/04 12:22:35;;;;;;;2.33;2.13;;;;;;;35.28;35.26;100664.69;4897814;29;20454;-70
2022/09/04 12:25:28;;;;;;;2.77;2.57;;;;;;;35.59;35.54;100665.72;4956774;28;20623;-75
2022/09/04 12:28:26;;;;;;;2.67;2.40;;;;;;;35.02;35.62;100669.31;4973878;28;20695;-71
2022/09/04 12:31:09;;;;;;;3.20;2.90;;;;;;;35.64;34.09;100660.31;4968685;28;20912;-70
2022/09/04 12:33:56;;;;;;;2.40;2.20;;;;;;;36.82;33.04;100667.72;4973219;28;21015;-70
2022/09/04 12:36:50;;;;;;;2.33;1.77;;;;;;;34.79;34.72;100669.03;5072580;28;20466;-71
2022/09/04 12:39:52;;;;;;;2.23;2.03;;;;;;;34.75;35.69;100668.63;5077497;28;20455;-71
2022/09/04 12:42:24;;;;;;;2.63;2.10;;;;;;;35.47;34.93;100671.22;5072515;28;20458;-70